Time;durP1;ratioP1;P1;durP2;ratioP2;P2;SDS_P1;SDS_P2;PMS_P1;PMS_P2;Temp;Humidity;BMP_temperature;BMP_pressure;BME280_temperature;BME280_humidity;BME280_pressure;Samples;Min_cycle;Max_cycle;Signal;HPM_P1;HPM_P2
2021/12/09 00:00:43;;;;;;;1.55;0.95;;;;;;;2.86;86.31;100201.88;4971995;28;96712;-34
2021/12/09 00:03:08;;;;;;;4.88;1.67;;;;;;;2.92;86.50;100212.31;4971816;28;96726;-34
2021/12/09 00:05:36;;;;;;;1.30;0.80;;;;;;;2.90;86.09;100200.78;4973090;28;97219;-34
2021/12/09 00:08:03;;;;;;;0.93;0.82;;;;;;;2.85;86.40;100205.47;4973471;28;97794;-35
2021/12/09 00:10:28;;;;;;;3.72;1.25;;;;;;;2.93;86.33;100223.88;4971939;28;96809;-34
2021/12/09 00:12:54;;;;;;;6.97;2.08;;;;;;;2.87;86.69;100213.44;4973492;28;96799;-35
2021/12/09 00:15:19;;;;;;;1.80;1.27;;;;;;;2.87;85.94;100211.63;4972702;28;97328;-34
2021/12/09 00:17:44;;;;;;;2.55;1.40;;;;;;;2.89;86.20;100224.94;4973014;28;103307;-34
2021/12/09 00:20:10;;;;;;;4.03;1.45;;;;;;;2.87;86.78;100229.47;4972579;28;113787;-34
2021/12/09 00:22:35;;;;;;;1.25;0.70;;;;;;;2.84;86.63;100225.13;4973685;28;96731;-34
2021/12/09 00:25:01;;;;;;;3.22;1.45;;;;;;;2.82;86.87;100221.63;4972730;28;98863;-34
2021/12/09 00:27:26;;;;;;;2.92;2.05;;;;;;;2.78;86.18;100214.66;4973350;28;97239;-34
2021/12/09 00:29:52;;;;;;;16.20;2.78;;;;;;;2.86;86.24;100233.06;4972542;28;96767;-34
2021/12/09 00:32:18;;;;;;;2.95;2.33;;;;;;;2.85;86.42;100234.88;4972681;28;96857;-34
2021/12/09 00:34:47;;;;;;;1.27;0.85;;;;;;;2.76;86.37;100222.75;4972889;28;97456;-34
2021/12/09 00:37:21;;;;;;;1.25;1.13;;;;;;;2.82;86.77;100229.66;4972770;28;97821;-34
2021/12/09 00:39:51;;;;;;;21.58;2.17;;;;;;;2.80;86.48;100226.16;4971405;28;96707;-34
2021/12/09 00:42:19;;;;;;;6.43;2.25;;;;;;;2.78;86.21;100217.34;4971570;28;96783;-34
2021/12/09 00:44:44;;;;;;;1.30;1.20;;;;;;;2.74;86.41;100221.06;4971467;28;101083;-34
2021/12/09 00:47:10;;;;;;;14.55;2.13;;;;;;;2.69;86.42;100221.25;4973326;28;97869;-34
2021/12/09 00:49:35;;;;;;;2.70;2.00;;;;;;;2.75;86.39;100222.81;4971382;28;97248;-34
2021/12/09 00:52:00;;;;;;;3.88;1.92;;;;;;;2.74;86.84;100227.28;4972102;28;119264;-34
2021/12/09 00:54:26;;;;;;;3.25;1.30;;;;;;;2.66;87.28;100218.69;4972085;28;97854;-34
2021/12/09 00:56:52;;;;;;;3.67;2.55;;;;;;;2.66;86.87;100220.50;4972639;28;97740;-34
2021/12/09 00:59:17;;;;;;;2.08;1.45;;;;;;;2.66;86.61;100224.03;4972976;28;96489;-35
2021/12/09 01:01:42;;;;;;;1.25;1.13;;;;;;;2.65;86.45;100224.13;4972377;28;96898;-35
2021/12/09 01:04:08;;;;;;;1.63;1.48;;;;;;;2.60;86.73;100223.41;4972669;28;97397;-35
2021/12/09 01:06:34;;;;;;;3.67;2.25;;;;;;;2.64;86.84;100223.22;4970859;28;101741;-35
2021/12/09 01:08:59;;;;;;;3.70;1.80;;;;;;;2.65;87.04;100224.13;4972749;28;96667;-35
2021/12/09 01:11:25;;;;;;;2.55;1.35;;;;;;;2.66;86.58;100217.81;4973114;28;96721;-34
2021/12/09 01:13:50;;;;;;;11.85;2.60;;;;;;;2.55;86.75;100212.88;4972315;28;99190;-35
2021/12/09 01:16:16;;;;;;;2.13;1.33;;;;;;;2.61;87.08;100226.03;4971738;28;118117;-34
2021/12/09 01:18:41;;;;;;;3.78;1.88;;;;;;;2.61;86.91;100215.31;4972029;28;96530;-34
2021/12/09 01:21:08;;;;;;;1.88;0.70;;;;;;;2.62;86.98;100218.88;4970923;28;96821;-35
2021/12/09 01:23:33;;;;;;;1.15;1.00;;;;;;;2.62;86.90;100222.44;4971031;28;100850;-35
2021/12/09 01:26:02;;;;;;;2.42;2.03;;;;;;;2.55;86.90;100210.19;4971850;28;97716;-34
2021/12/09 01:28:31;;;;;;;3.75;1.75;;;;;;;2.56;86.45;100219.97;4970555;28;96684;-35
2021/12/09 01:31:03;;;;;;;0.80;0.80;;;;;;;2.59;87.16;100222.53;4972041;28;96873;-34
2021/12/09 01:33:33;;;;;;;4.18;2.28;;;;;;;2.54;86.97;100217.34;4972355;28;97929;-34
2021/12/09 01:36:01;;;;;;;1.80;1.02;;;;;;;2.59;87.01;100225.19;4970877;28;103459;-34
2021/12/09 01:38:30;;;;;;;3.58;0.98;;;;;;;2.58;86.91;100222.59;4970855;28;96609;-34
2021/12/09 01:40:56;;;;;;;1.73;0.90;;;;;;;2.63;86.71;100226.84;4970802;28;96958;-34
2021/12/09 01:43:22;;;;;;;1.25;1.05;;;;;;;2.60;86.73;100223.41;4970138;28;98055;-34
2021/12/09 01:45:48;;;;;;;2.25;1.45;;;;;;;2.61;86.51;100211.78;4970692;28;101339;-34
2021/12/09 01:48:13;;;;;;;3.40;2.35;;;;;;;2.61;86.95;100227.81;4972131;28;96455;-34
2021/12/09 01:50:39;;;;;;;8.85;1.85;;;;;;;2.52;86.77;100219.22;4972067;28;96863;-34
2021/12/09 01:53:07;;;;;;;1.85;1.20;;;;;;;2.52;86.56;100219.22;4972136;28;97932;-34
2021/12/09 01:55:33;;;;;;;5.57;2.00;;;;;;;2.58;86.32;100234.16;4970282;28;100903;-34
2021/12/09 01:58:00;;;;;;;3.13;1.30;;;;;;;2.48;86.82;100222.97;4970609;28;96738;-35
2021/12/09 02:00:29;;;;;;;5.47;1.60;;;;;;;2.49;86.93;100234.53;4970850;28;96918;-34
2021/12/09 02:02:55;;;;;;;0.70;0.70;;;;;;;2.43;87.22;100224.03;4969719;28;100969;-35
2021/12/09 02:05:21;;;;;;;1.27;1.02;;;;;;;2.40;87.06;100227.72;4970433;28;100777;-35
2021/12/09 02:07:47;;;;;;;3.13;2.25;;;;;;;2.38;87.21;100229.56;4970133;28;97046;-34
2021/12/09 02:10:16;;;;;;;1.63;1.02;;;;;;;2.37;87.00;100235.84;4970601;28;96959;-35
2021/12/09 02:12:41;;;;;;;3.40;1.27;;;;;;;2.40;87.53;100237.53;4970273;28;101062;-34
2021/12/09 02:15:07;;;;;;;1.40;0.57;;;;;;;2.43;87.26;100232.97;4971773;28;98001;-34
2021/12/09 02:17:33;;;;;;;2.05;1.30;;;;;;;2.34;87.23;100214.59;4972045;28;96743;-34
2021/12/09 02:20:01;;;;;;;1.20;0.90;;;;;;;2.31;87.25;100212.91;4971669;28;96777;-34
2021/12/09 02:22:28;;;;;;;2.03;1.15;;;;;;;2.33;87.35;100224.38;4971586;28;99405;-35
2021/12/09 02:24:56;;;;;;;1.85;1.38;;;;;;;2.29;87.51;100222.78;4972048;28;97856;-35
2021/12/09 02:27:23;;;;;;;4.10;1.58;;;;;;;2.33;87.36;100234.22;4970325;28;96568;-35
2021/12/09 02:29:54;;;;;;;3.03;1.63;;;;;;;2.34;87.28;100238.66;4970401;28;96938;-35
2021/12/09 02:32:19;;;;;;;3.15;1.83;;;;;;;2.32;87.69;100240.50;4969621;28;100616;-35
2021/12/09 02:34:45;;;;;;;2.30;1.25;;;;;;;2.33;87.27;100243.09;4971209;28;108631;-34
2021/12/09 02:37:13;;;;;;;1.70;1.17;;;;;;;2.31;87.49;100246.75;4971653;28;96587;-34
2021/12/09 02:39:39;;;;;;;15.50;2.83;;;;;;;2.28;87.26;100238.88;4973269;28;96810;-35
2021/12/09 02:42:05;;;;;;;3.28;1.35;;;;;;;2.26;87.29;100227.34;4973285;28;101014;-34
2021/12/09 02:44:30;;;;;;;3.58;2.03;;;;;;;2.22;87.55;100225.75;4974630;28;97783;-35
2021/12/09 02:46:56;;;;;;;3.60;1.60;;;;;;;2.17;87.87;100222.34;4974889;28;96442;-34
2021/12/09 02:49:26;;;;;;;0.80;0.80;;;;;;;2.21;87.95;100234.69;4973794;28;96766;-35
2021/12/09 02:51:53;;;;;;;2.85;1.75;;;;;;;2.17;87.33;100225.91;4974779;28;97888;-34
2021/12/09 02:54:21;;;;;;;1.33;0.95;;;;;;;2.21;87.73;100234.69;4972875;28;100865;-34
2021/12/09 02:56:49;;;;;;;1.48;1.00;;;;;;;2.21;88.04;100232.00;4972784;28;96760;-34
2021/12/09 02:59:15;;;;;;;2.28;1.55;;;;;;;2.19;87.73;100232.06;4973055;28;97180;-35
2021/12/09 03:01:57;;;;;;;2.15;1.33;;;;;;;2.20;88.07;100227.59;4972472;28;101541;-34
2021/12/09 03:04:26;;;;;;;1.52;1.33;;;;;;;2.23;87.38;100236.34;4974638;28;98203;-34
2021/12/09 03:06:54;;;;;;;2.22;0.75;;;;;;;2.17;87.96;100225.91;4974548;28;96621;-34
2021/12/09 03:09:20;;;;;;;3.65;1.88;;;;;;;2.13;87.92;100230.50;4974460;28;96759;-34
2021/12/09 03:11:54;;;;;;;2.15;1.40;;;;;;;2.18;87.33;100242.81;4972582;28;100853;-34
2021/12/09 03:14:20;;;;;;;2.22;1.20;;;;;;;2.10;87.64;100229.75;4974772;28;97850;-34
2021/12/09 03:16:45;;;;;;;5.28;2.25;;;;;;;2.10;88.30;100230.63;4974657;28;96580;-34
2021/12/09 03:19:11;;;;;;;2.25;1.17;;;;;;;2.10;88.35;100229.75;4974322;28;96838;-34
2021/12/09 03:21:45;;;;;;;0.08;0.08;;;;;;;2.11;87.74;100237.69;4972231;28;98548;-34
2021/12/09 03:24:14;;;;;;;2.38;1.77;;;;;;;2.13;87.94;100240.31;4972551;28;101025;-34
2021/12/09 03:26:44;;;;;;;3.50;0.98;;;;;;;2.15;87.79;100245.59;4972853;28;96800;-34
2021/12/09 03:29:12;;;;;;;1.00;0.90;;;;;;;2.08;88.16;100234.28;4972585;28;96883;-34
2021/12/09 03:31:40;;;;;;;8.75;1.95;;;;;;;2.11;87.78;100250.19;4972337;28;101069;-34
2021/12/09 03:34:06;;;;;;;0.82;0.40;;;;;;;2.06;87.79;100242.31;4972387;28;100812;-34
2021/12/09 03:36:31;;;;;;;1.67;1.08;;;;;;;2.12;87.72;100250.13;4972437;28;96665;-34
2021/12/09 03:39:06;;;;;;;4.63;1.85;;;;;;;2.09;88.11;100257.38;4974132;28;96723;-34
2021/12/09 03:41:32;;;;;;;1.23;0.63;;;;;;;2.09;88.03;100257.38;4973972;28;97859;-34
2021/12/09 03:43:57;;;;;;;1.48;1.38;;;;;;;2.09;87.98;100254.69;4972374;28;98370;-34
2021/12/09 03:46:23;;;;;;;4.72;1.45;;;;;;;2.00;88.16;100247.91;4973447;28;96550;-34
2021/12/09 03:48:48;;;;;;;0.20;0.17;;;;;;;2.06;88.14;100258.34;4973548;28;96814;-34
2021/12/09 03:51:13;;;;;;;7.18;1.13;;;;;;;2.08;88.59;100255.63;4971185;28;101185;-35
2021/12/09 03:53:39;;;;;;;8.50;1.80;;;;;;;2.05;88.30;100243.28;4973720;28;96872;-34
2021/12/09 03:56:05;;;;;;;2.97;1.83;;;;;;;2.02;87.97;100242.50;4973065;28;116327;-34
2021/12/09 03:58:30;;;;;;;1.98;1.40;;;;;;;2.08;88.38;100261.84;4972338;28;96884;-34
2021/12/09 04:00:55;;;;;;;1.85;1.52;;;;;;;2.08;88.38;100255.63;4973448;28;97962;-34
2021/12/09 04:03:21;;;;;;;0.73;0.73;;;;;;;2.06;88.54;100260.16;4972152;28;98996;-34
2021/12/09 04:05:48;;;;;;;4.05;1.55;;;;;;;2.00;88.04;100247.91;4973581;28;96762;-34
2021/12/09 04:08:15;;;;;;;1.77;1.27;;;;;;;2.04;87.90;100254.88;4972172;28;96614;-34
2021/12/09 04:10:40;;;;;;;2.10;1.15;;;;;;;2.01;87.75;100254.13;4971497;28;101292;-34
2021/12/09 04:13:06;;;;;;;4.43;1.92;;;;;;;2.02;88.24;100261.19;4973328;28;97996;-34
2021/12/09 04:15:32;;;;;;;0.80;0.73;;;;;;;2.04;87.86;100265.53;4972053;28;96550;-34
2021/12/09 04:17:57;;;;;;;1.30;1.13;;;;;;;2.00;87.70;100255.03;4973561;28;96757;-34
2021/12/09 04:20:23;;;;;;;2.97;2.10;;;;;;;2.05;88.12;100272.66;4973089;28;97860;-34
2021/12/09 04:22:49;;;;;;;0.95;0.88;;;;;;;1.97;88.23;100258.69;4971733;28;100916;-34
2021/12/09 04:25:17;;;;;;;1.83;1.20;;;;;;;2.01;88.00;100265.66;4973315;28;96515;-34
2021/12/09 04:27:44;;;;;;;1.08;0.75;;;;;;;2.05;88.01;100263.75;4972249;28;96838;-34
2021/12/09 04:30:10;;;;;;;1.38;0.98;;;;;;;2.03;88.22;100263.81;4971624;28;100946;-34
2021/12/09 04:32:35;;;;;;;1.98;0.47;;;;;;;2.02;87.92;100266.53;4971260;28;100761;-34
2021/12/09 04:35:01;;;;;;;1.40;1.08;;;;;;;2.02;88.32;100256.72;4972269;28;96752;-34
2021/12/09 04:37:26;;;;;;;0.75;0.75;;;;;;;2.05;88.24;100264.63;4973205;28;96824;-34
2021/12/09 04:39:51;;;;;;;10.45;1.17;;;;;;;2.03;87.81;100266.50;4972867;28;97414;-34
2021/12/09 04:42:17;;;;;;;0.93;0.68;;;;;;;2.02;88.31;100272.75;4973028;28;97805;-34
2021/12/09 04:44:42;;;;;;;5.05;0.95;;;;;;;2.05;88.19;100274.44;4972985;28;97279;-34
2021/12/09 04:47:08;;;;;;;8.40;1.73;;;;;;;1.97;88.26;100263.16;4972389;28;115323;-35
2021/12/09 04:49:33;;;;;;;1.77;1.10;;;;;;;1.96;88.06;100262.28;4971230;28;101406;-34
2021/12/09 04:52:00;;;;;;;12.88;2.28;;;;;;;1.98;87.80;100279.13;4973213;28;98024;-34
2021/12/09 04:54:25;;;;;;;0.63;0.30;;;;;;;2.01;88.51;100280.81;4971213;28;96640;-34
2021/12/09 04:56:52;;;;;;;3.17;1.05;;;;;;;1.93;88.30;100273.06;4972627;28;96950;-35
2021/12/09 04:59:18;;;;;;;1.60;0.98;;;;;;;2.01;88.27;100286.16;4972210;28;97991;-34
2021/12/09 05:01:48;;;;;;;2.45;1.63;;;;;;;1.98;88.06;100294.25;4970605;28;98763;-34
2021/12/09 05:04:14;;;;;;;4.22;0.93;;;;;;;1.94;88.00;100287.31;4972438;28;96759;-34
2021/12/09 05:06:39;;;;;;;2.25;0.82;;;;;;;1.96;88.30;100290.81;4972789;28;96753;-35
2021/12/09 05:09:10;;;;;;;5.55;1.90;;;;;;;1.98;88.29;100287.16;4972604;28;97981;-34
2021/12/09 05:14:03;;;;;;;0.30;0.30;;;;;;;1.93;88.15;100283.75;4972731;28;96588;-34
2021/12/09 05:16:28;;;;;;;1.63;0.82;;;;;;;1.94;88.14;100293.50;4972943;28;96753;-34
2021/12/09 05:18:58;;;;;;;2.80;1.23;;;;;;;1.96;88.09;100307.69;4972583;28;98488;-34
2021/12/09 05:21:28;;;;;;;5.07;1.48;;;;;;;2.01;87.96;100310.22;4972318;28;97827;-34
2021/12/09 05:23:53;;;;;;;0.10;0.10;;;;;;;1.98;88.17;100295.16;4970677;28;97485;-34
2021/12/09 05:26:20;;;;;;;2.33;1.15;;;;;;;2.00;88.15;100297.75;4972560;28;96823;-34
2021/12/09 05:28:52;;;;;;;0.95;0.90;;;;;;;2.03;88.19;100303.88;4972062;28;99568;-34
2021/12/09 05:34:02;;;;;;;2.85;0.93;;;;;;;2.04;87.80;100300.28;4972649;28;96453;-34
2021/12/09 05:36:27;;;;;;;1.73;1.30;;;;;;;2.01;88.06;100292.38;4972567;28;96750;-34
2021/12/09 05:38:53;;;;;;;9.65;0.47;;;;;;;1.89;88.39;100280.31;4972349;28;97830;-34
2021/12/09 05:41:18;;;;;;;1.05;0.43;;;;;;;1.99;88.21;100291.56;4972613;28;97759;-34
2021/12/09 05:43:44;;;;;;;1.10;0.80;;;;;;;1.96;87.98;100285.47;4971454;28;113307;-34
2021/12/09 05:46:09;;;;;;;1.90;1.13;;;;;;;2.00;88.43;100301.31;4972298;28;96742;-34
2021/12/09 05:48:35;;;;;;;1.48;0.57;;;;;;;1.94;88.62;100285.50;4971664;28;97901;-34
2021/12/09 05:51:01;;;;;;;2.15;0.82;;;;;;;1.99;88.24;100294.22;4970691;28;100935;-34
2021/12/09 05:53:26;;;;;;;2.05;0.90;;;;;;;1.99;87.91;100296.03;4970658;28;96557;-34
2021/12/09 05:55:51;;;;;;;13.00;1.77;;;;;;;1.94;88.12;100301.53;4971885;28;96819;-34
2021/12/09 05:58:19;;;;;;;1.75;0.98;;;;;;;1.93;88.10;100297.09;4971117;28;116846;-34
2021/12/09 06:00:46;;;;;;;3.50;1.13;;;;;;;1.91;88.18;100312.31;4970381;28;103490;-34
2021/12/09 06:03:12;;;;;;;1.95;1.27;;;;;;;1.91;88.38;100313.19;4970420;28;96871;-34
2021/12/09 06:05:37;;;;;;;1.13;0.80;;;;;;;1.89;88.62;100309.69;4972522;28;96744;-34
2021/12/09 06:08:03;;;;;;;2.08;0.93;;;;;;;1.87;88.83;100305.34;4972002;28;97951;-34
2021/12/09 06:10:30;;;;;;;1.90;1.02;;;;;;;1.89;88.23;100315.03;4970503;28;101166;-34
2021/12/09 06:12:55;;;;;;;2.40;0.93;;;;;;;1.90;88.40;100321.25;4972127;28;97009;-34
2021/12/09 06:15:22;;;;;;;3.97;2.25;;;;;;;1.86;88.23;100314.25;4975761;28;96833;-35
2021/12/09 06:17:47;;;;;;;2.67;1.20;;;;;;;1.87;88.96;100305.34;4975328;28;97966;-34
2021/12/09 06:20:13;;;;;;;9.65;1.50;;;;;;;1.86;88.34;100314.25;4975102;28;97332;-34
2021/12/09 06:22:38;;;;;;;2.63;0.80;;;;;;;1.90;88.60;100321.25;4974967;28;96757;-34
2021/12/09 06:25:04;;;;;;;1.08;0.63;;;;;;;1.87;88.64;100314.22;4974910;28;97393;-34
2021/12/09 06:27:30;;;;;;;1.02;0.93;;;;;;;1.76;88.78;100291.47;4974656;28;99021;-35
2021/12/09 06:29:55;;;;;;;3.90;2.00;;;;;;;1.83;88.62;100309.91;4974877;28;112502;-35
2021/12/09 06:32:21;;;;;;;5.10;1.35;;;;;;;1.79;88.66;100308.28;4974627;28;96828;-34
2021/12/09 06:34:46;;;;;;;3.63;0.93;;;;;;;1.82;88.68;100307.31;4974855;28;96783;-35
2021/12/09 06:37:11;;;;;;;0.75;0.75;;;;;;;1.80;88.79;100304.66;4973853;28;97877;-34
2021/12/09 06:39:37;;;;;;;5.10;0.57;;;;;;;1.84;89.18;100300.97;4974406;28;99304;-34
2021/12/09 06:42:02;;;;;;;4.00;1.90;;;;;;;1.88;88.51;100317.75;4974545;28;96603;-34
2021/12/09 06:44:28;;;;;;;0.32;0.32;;;;;;;1.85;88.80;100297.38;4974354;28;96777;-34
2021/12/09 06:46:55;;;;;;;0.43;0.40;;;;;;;1.87;88.77;100318.69;4974550;28;97942;-34
2021/12/09 06:49:22;;;;;;;1.30;0.77;;;;;;;1.91;89.11;100304.31;4974677;28;97915;-35
2021/12/09 06:51:47;;;;;;;12.27;1.33;;;;;;;1.97;88.75;100312.09;4973386;28;96688;-34
2021/12/09 06:54:12;;;;;;;0.65;0.63;;;;;;;1.97;88.69;100305.88;4975075;28;96820;-35
2021/12/09 06:56:38;;;;;;;1.83;0.80;;;;;;;1.95;89.01;100302.41;4973708;28;120827;-35
2021/12/09 06:59:03;;;;;;;8.23;0.63;;;;;;;1.97;88.57;100309.44;4974885;28;97269;-34
2021/12/09 07:01:28;;;;;;;0.68;0.52;;;;;;;2.03;88.79;100321.72;4973776;28;96838;-35
2021/12/09 07:03:54;;;;;;;0.15;0.15;;;;;;;1.94;88.79;100312.22;4974797;28;96538;-35
2021/12/09 07:06:20;;;;;;;3.70;1.05;;;;;;;1.96;88.42;100314.84;4974560;28;97978;-35
2021/12/09 07:08:48;;;;;;;1.63;0.90;;;;;;;1.98;88.60;100310.28;4974484;28;97885;-35
2021/12/09 07:11:16;;;;;;;2.08;0.63;;;;;;;1.94;88.91;100311.34;4972941;28;97119;-35
2021/12/09 07:13:43;;;;;;;8.88;2.17;;;;;;;2.00;89.19;100317.34;4973029;28;96869;-35
2021/12/09 07:16:08;;;;;;;0.82;0.75;;;;;;;1.99;88.75;100326.28;4974357;28;97262;-34
2021/12/09 07:18:36;;;;;;;2.40;0.95;;;;;;;2.03;88.73;100321.72;4974422;28;98568;-34
2021/12/09 07:21:02;;;;;;;0.45;0.45;;;;;;;2.01;88.94;100329.78;4956537;28;96709;-34
2021/12/09 07:23:27;;;;;;;4.78;1.90;;;;;;;2.03;88.96;100327.91;4972530;28;96862;-34
2021/12/09 07:25:52;;;;;;;1.30;0.77;;;;;;;1.97;88.61;100321.91;4972589;28;97504;-35
2021/12/09 07:28:18;;;;;;;2.13;1.20;;;;;;;1.97;88.67;100336.13;4972721;28;97791;-35
2021/12/09 07:30:44;;;;;;;3.20;1.50;;;;;;;1.98;88.71;100334.31;4971837;28;97063;-35
2021/12/09 07:33:09;;;;;;;0.38;0.38;;;;;;;1.94;88.92;100338.91;4972497;28;96675;-34
2021/12/09 07:35:35;;;;;;;2.08;0.65;;;;;;;1.94;89.46;100344.25;4974039;28;97453;-34
2021/12/09 07:38:02;;;;;;;7.00;1.02;;;;;;;1.93;89.22;100334.47;4974207;28;97291;-34
2021/12/09 07:40:28;;;;;;;3.85;1.73;;;;;;;2.00;89.52;100356.50;4972070;28;96727;-35
2021/12/09 07:42:54;;;;;;;2.08;1.23;;;;;;;1.94;89.26;100335.38;4972955;28;96850;-35
2021/12/09 07:45:20;;;;;;;1.98;1.05;;;;;;;1.99;89.96;100344.97;4973841;28;97992;-34
2021/12/09 07:47:46;;;;;;;4.50;1.30;;;;;;;2.05;89.60;100351.88;4973810;28;97864;-34
2021/12/09 07:50:15;;;;;;;1.92;0.93;;;;;;;2.03;89.32;100343.09;4973171;28;96638;-34
2021/12/09 07:52:42;;;;;;;3.90;1.90;;;;;;;2.16;89.84;100356.88;4972331;28;97263;-34
2021/12/09 07:55:09;;;;;;;0.65;0.50;;;;;;;2.20;90.04;100358.53;4973050;28;97469;-34
2021/12/09 07:57:35;;;;;;;2.63;1.08;;;;;;;2.25;89.23;100359.22;4972141;28;100529;-34
2021/12/09 08:00:02;;;;;;;3.05;1.10;;;;;;;2.25;88.90;100359.22;4973662;28;96542;-34
2021/12/09 08:02:27;;;;;;;3.83;1.95;;;;;;;2.25;89.50;100348.53;4971653;28;96821;-34
2021/12/09 08:04:52;;;;;;;1.98;0.95;;;;;;;2.28;89.33;100354.63;4973479;28;98009;-34
2021/12/09 08:07:17;;;;;;;6.80;1.25;;;;;;;2.29;89.33;100352.84;4972850;28;123158;-34
2021/12/09 08:09:43;;;;;;;1.33;1.15;;;;;;;2.39;89.19;100362.28;4972587;28;120977;-34
2021/12/09 08:12:08;;;;;;;1.70;1.17;;;;;;;2.39;88.89;100370.28;4972669;28;118789;-34
2021/12/09 08:14:34;;;;;;;3.13;1.00;;;;;;;2.35;89.17;100363.31;4973003;28;97502;-34
2021/12/09 08:17:23;;;;;;;7.10;1.67;;;;;;;2.44;89.40;100375.47;4973432;28;97262;-35
2021/12/09 08:19:49;;;;;;;1.60;1.27;;;;;;;2.44;89.47;100375.47;4971915;28;96590;-35
2021/12/09 08:22:15;;;;;;;0.40;0.30;;;;;;;2.48;89.17;100374.41;4971345;28;96987;-34
2021/12/09 08:24:41;;;;;;;5.65;0.90;;;;;;;2.51;89.06;100367.19;4973105;28;97932;-35
2021/12/09 08:27:06;;;;;;;5.03;1.95;;;;;;;2.48;88.85;100361.97;4973251;28;97931;-35
2021/12/09 08:29:31;;;;;;;3.83;0.68;;;;;;;2.58;89.03;100383.88;4971807;28;96599;-34
2021/12/09 08:31:56;;;;;;;5.50;2.20;;;;;;;2.56;89.04;100380.38;4971171;28;121080;-34
2021/12/09 08:34:22;;;;;;;2.40;1.75;;;;;;;2.57;89.15;100376.78;4972284;28;120435;-35
2021/12/09 08:36:48;;;;;;;3.65;1.55;;;;;;;2.59;88.86;100371.38;4971049;28;102092;-34
2021/12/09 08:39:13;;;;;;;2.35;1.80;;;;;;;2.67;88.76;100385.31;4971053;28;96796;-34
2021/12/09 08:41:39;;;;;;;4.22;2.58;;;;;;;2.63;88.62;100376.56;4972335;28;115465;-35
2021/12/09 08:44:06;;;;;;;5.50;1.30;;;;;;;2.70;89.14;100386.09;4971423;28;101293;-34
2021/12/09 08:46:32;;;;;;;0.95;0.82;;;;;;;2.66;89.16;100370.22;4971432;28;101136;-34
2021/12/09 08:48:57;;;;;;;0.82;0.77;;;;;;;2.75;89.45;100383.25;4973064;28;96471;-34
2021/12/09 08:51:23;;;;;;;1.45;1.13;;;;;;;2.77;89.51;100386.75;4972631;28;96947;-34
2021/12/09 08:53:48;;;;;;;12.90;1.58;;;;;;;2.78;89.28;100376.91;4972561;28;102469;-34
2021/12/09 08:56:13;;;;;;;1.45;0.82;;;;;;;2.78;89.28;100379.59;4972417;28;126434;-34
2021/12/09 08:58:38;;;;;;;1.90;1.50;;;;;;;2.73;88.67;100371.75;4972548;28;100515;-34
2021/12/09 09:01:04;;;;;;;2.38;1.17;;;;;;;2.82;89.00;100389.25;4970920;28;96794;-34
2021/12/09 09:03:30;;;;;;;2.33;1.42;;;;;;;2.86;89.45;100389.09;4970796;28;100797;-34
2021/12/09 09:05:55;;;;;;;2.13;1.40;;;;;;;2.90;89.08;100390.69;4972435;28;97934;-35
2021/12/09 09:08:21;;;;;;;2.38;1.40;;;;;;;2.95;89.40;100388.72;4972530;28;96554;-34
2021/12/09 09:10:46;;;;;;;1.63;0.77;;;;;;;2.97;89.08;100386.00;4972808;28;96752;-34
2021/12/09 09:13:14;;;;;;;8.05;1.73;;;;;;;3.07;88.58;100391.88;4972199;28;99501;-34
2021/12/09 09:15:40;;;;;;;3.42;2.13;;;;;;;3.12;89.10;100395.22;4971087;28;100821;-35
2021/12/09 09:18:07;;;;;;;2.13;0.98;;;;;;;3.09;88.74;100385.53;4971088;28;97749;-34
2021/12/09 09:20:39;;;;;;;8.13;1.65;;;;;;;3.17;89.24;100395.94;4971234;28;96856;-34
2021/12/09 09:23:05;;;;;;;2.78;1.80;;;;;;;3.21;88.54;100402.91;4972646;28;97919;-34
2021/12/09 09:25:31;;;;;;;2.90;1.77;;;;;;;3.21;88.93;100405.59;4970968;28;101011;-34
2021/12/09 09:28:00;;;;;;;0.95;0.88;;;;;;;3.19;88.84;100407.44;4972155;28;101235;-34
2021/12/09 09:30:34;;;;;;;3.83;1.83;;;;;;;3.20;88.84;100398.50;4972216;28;96735;-34
2021/12/09 09:33:01;;;;;;;2.38;1.45;;;;;;;3.13;89.38;100391.66;4971874;28;98014;-34
2021/12/09 09:35:26;;;;;;;3.80;1.80;;;;;;;3.14;89.38;100391.56;4970821;28;100882;-35
2021/12/09 09:37:52;;;;;;;6.82;2.05;;;;;;;3.23;89.15;100403.72;4972407;28;96635;-34
2021/12/09 09:40:27;;;;;;;5.72;1.77;;;;;;;3.19;88.89;100386.03;4971757;28;106226;-34
2021/12/09 09:43:15;;;;;;;2.85;1.40;;;;;;;3.28;89.20;100391.03;4972092;28;99349;-35
2021/12/09 09:45:41;;;;;;;2.60;0.88;;;;;;;3.33;88.83;100386.38;4972304;28;97978;-35
2021/12/09 09:48:12;;;;;;;1.55;1.15;;;;;;;3.42;89.22;100398.53;4973340;28;96490;-34
2021/12/09 09:50:39;;;;;;;4.20;1.58;;;;;;;3.44;88.81;100399.34;4974195;28;96850;-34
2021/12/09 09:53:10;;;;;;;1.10;0.70;;;;;;;3.40;89.34;100387.00;4973593;28;100813;-35
2021/12/09 09:55:36;;;;;;;18.02;1.52;;;;;;;3.46;88.85;100393.94;4973902;28;101002;-35
2021/12/09 09:58:03;;;;;;;7.68;1.55;;;;;;;3.52;89.12;100409.75;4975448;28;96801;-34
2021/12/09 10:00:28;;;;;;;8.40;1.38;;;;;;;3.47;88.68;100404.59;4974015;28;96790;-35
2021/12/09 10:02:54;;;;;;;2.67;1.58;;;;;;;3.54;89.04;100408.75;4975333;28;97441;-34
2021/12/09 10:05:28;;;;;;;3.03;1.48;;;;;;;3.52;88.71;100399.91;4975393;28;97854;-34
2021/12/09 10:07:53;;;;;;;7.93;1.77;;;;;;;3.59;89.03;100416.63;4975571;28;96464;-35
2021/12/09 10:10:19;;;;;;;2.20;1.50;;;;;;;3.55;89.32;100399.81;4975551;28;96841;-35
2021/12/09 10:13:06;;;;;;;2.72;2.10;;;;;;;3.61;89.53;100404.91;4975142;28;99262;-34
2021/12/09 10:15:39;;;;;;;0.93;0.47;;;;;;;3.58;88.80;100388.97;4975363;28;97885;-34
2021/12/09 10:18:05;;;;;;;7.60;1.88;;;;;;;3.70;89.19;100402.81;4973315;28;97340;-35
2021/12/09 10:20:53;;;;;;;3.25;2.08;;;;;;;3.75;89.31;100407.03;4975225;28;96755;-34
2021/12/09 10:23:30;;;;;;;1.80;1.63;;;;;;;3.79;89.21;100403.31;4975023;28;98201;-35
2021/12/09 10:26:20;;;;;;;4.68;2.03;;;;;;;3.81;89.45;100404.13;4975029;28;97744;-34
2021/12/09 10:28:52;;;;;;;4.25;2.38;;;;;;;3.83;88.54;100404.03;4975266;28;96607;-34
2021/12/09 10:31:29;;;;;;;3.03;2.13;;;;;;;3.88;89.14;100406.53;4973627;28;96943;-35
2021/12/09 10:34:11;;;;;;;11.18;2.75;;;;;;;3.91;88.68;100401.03;4975019;28;97898;-35
2021/12/09 10:36:49;;;;;;;9.90;3.55;;;;;;;3.95;88.80;100403.53;4975394;28;97872;-34
2021/12/09 10:39:22;;;;;;;5.03;3.03;;;;;;;3.97;88.90;100406.16;4973637;28;96701;-34
2021/12/09 10:41:48;;;;;;;11.82;3.65;;;;;;;3.93;88.83;100397.38;4974986;28;96782;-35
2021/12/09 10:44:14;;;;;;;4.30;2.55;;;;;;;3.96;88.82;100394.56;4972872;28;100816;-34
2021/12/09 10:47:07;;;;;;;2.83;2.00;;;;;;;3.96;89.14;100401.75;4974712;28;97809;-34
2021/12/09 10:49:45;;;;;;;3.58;2.33;;;;;;;3.96;88.85;100382.97;4973554;28;96622;-34
2021/12/09 10:52:36;;;;;;;3.63;2.08;;;;;;;4.01;89.09;100389.03;4973220;28;96813;-35
2021/12/09 10:55:09;;;;;;;2.80;2.00;;;;;;;4.03;89.60;100390.69;4974225;28;98975;-34
2021/12/09 10:57:35;;;;;;;4.93;2.40;;;;;;;4.04;89.55;100396.91;4973200;28;100909;-34
2021/12/09 11:00:22;;;;;;;9.38;2.60;;;;;;;4.10;89.15;100401.13;4974116;28;96533;-34
2021/12/09 11:03:05;;;;;;;12.95;3.15;;;;;;;4.12;89.54;100397.44;4973188;28;96733;-34
2021/12/09 11:05:39;;;;;;;4.63;3.20;;;;;;;4.13;89.41;100396.53;4974534;28;97856;-34
2021/12/09 11:08:23;;;;;;;4.13;2.28;;;;;;;4.09;89.33;100381.50;4973101;28;100863;-35
2021/12/09 11:10:56;;;;;;;4.80;1.33;;;;;;;4.12;89.96;100389.41;4972496;28;96771;-34
2021/12/09 11:13:21;;;;;;;10.93;3.55;;;;;;;4.13;89.58;100385.81;4973019;28;96701;-34
2021/12/09 11:15:58;;;;;;;2.95;2.13;;;;;;;4.08;89.43;100387.81;4974440;28;97969;-34
2021/12/09 11:18:33;;;;;;;5.22;2.92;;;;;;;4.15;89.20;100394.66;4972898;28;101045;-35
2021/12/09 11:21:01;;;;;;;8.40;2.50;;;;;;;4.10;89.50;100383.28;4974463;28;96708;-35
2021/12/09 11:23:30;;;;;;;6.63;3.80;;;;;;;4.15;89.36;100383.94;4974017;28;96843;-35
2021/12/09 11:25:59;;;;;;;16.45;4.60;;;;;;;4.17;89.90;100387.44;4972744;28;100785;-34
2021/12/09 11:28:26;;;;;;;5.45;2.85;;;;;;;4.13;89.54;100369.72;4974214;28;97927;-35
2021/12/09 11:31:11;;;;;;;7.78;3.63;;;;;;;4.11;89.72;100371.59;4972400;28;96766;-35
2021/12/09 11:33:41;;;;;;;3.95;2.75;;;;;;;4.19;89.54;100376.63;4972758;28;96714;-35
2021/12/09 11:36:09;;;;;;;6.72;2.90;;;;;;;4.15;90.04;100378.59;4973384;28;99768;-34
2021/12/09 11:39:07;;;;;;;7.30;3.75;;;;;;;4.23;89.37;100375.56;4973853;28;97837;-34